PHRAB EDXW-EDXW
Flight info
| Callsign | PHRAB |
|---|---|
| Flight time | 0h 1m |
| Altitude | 1000 |
| Route | CIRCUITS/NEWBIE |
| Aircraft | C172/L-V/N |
Departure
| Time | 2026-04-20 18:12 |
|---|---|
| Airport | Westerland Sylt Airport (EDXW) |
Arrival
| Time | 2026-04-20 18:13 |
|---|---|
| Airport | Westerland Sylt Airport (EDXW) |
| Time | Latitude | Longitude | Altitude | Speed | Heading |
|---|---|---|---|---|---|
| 2026-04-20 17:56 | 54.91074 | 8.32700 | 24 ft | 0 kts | 16° |
| 2026-04-20 18:05 | 54.91077 | 8.32702 | 24 ft | 0 kts | 18° |
| 2026-04-20 18:05 | 54.91082 | 8.32705 | 24 ft | 0 kts | 21° |
| 2026-04-20 18:05 | 54.91087 | 8.32716 | 24 ft | 0 kts | 86° |
| 2026-04-20 18:06 | 54.91080 | 8.32773 | 25 ft | 9 kts | 106° |
| 2026-04-20 18:06 | 54.91071 | 8.32821 | 25 ft | 0 kts | 110° |
| 2026-04-20 18:10 | 54.91056 | 8.32887 | 26 ft | 10 kts | 114° |
| 2026-04-20 18:10 | 54.91001 | 8.33068 | 27 ft | 15 kts | 97° |
| 2026-04-20 18:10 | 54.91025 | 8.33163 | 27 ft | 0 kts | 59° |
| 2026-04-20 18:11 | 54.91027 | 8.33169 | 27 ft | 3 kts | 61° |
| 2026-04-20 18:11 | 54.91154 | 8.33542 | 34 ft | 62 kts | 63° |
| 2026-04-20 18:11 | 54.91446 | 8.34155 | 352 ft | 54 kts | 54° |
| 2026-04-20 18:12 | 54.91787 | 8.34845 | 570 ft | 74 kts | 33° |
| 2026-04-20 18:12 | 54.92312 | 8.34300 | 731 ft | 106 kts | 317° |
| 2026-04-20 18:12 | 54.92832 | 8.33308 | 891 ft | 117 kts | 317° |
| 2026-04-20 18:12 | 54.93174 | 8.32091 | 1119 ft | 80 kts | 215° |
| 2026-04-20 18:13 | 54.92691 | 8.32281 | 784 ft | 78 kts | 140° |
| 2026-04-20 18:13 | 54.92288 | 8.32782 | 523 ft | 66 kts | 130° |
| 2026-04-20 18:13 | 54.91907 | 8.33287 | 193 ft | 64 kts | 132° |
| 2026-04-20 18:13 | 54.91574 | 8.33713 | 27 ft | 38 kts | 133° |
| 2026-04-20 18:14 | 54.91396 | 8.33980 | 27 ft | 25 kts | 146° |
| 2026-04-20 18:14 | 54.91194 | 8.34208 | 27 ft | 36 kts | 142° |
| 2026-04-20 18:14 | 54.90807 | 8.34623 | 163 ft | 65 kts | 140° |
| 2026-04-20 18:14 | 54.90369 | 8.35124 | 405 ft | 70 kts | 136° |
| 2026-04-20 18:15 | 54.90203 | 8.35850 | 701 ft | 71 kts | 64° |
| 2026-04-20 18:15 | 54.90666 | 8.36537 | 939 ft | 85 kts | 46° |
| 2026-04-20 18:15 | 54.91311 | 8.36743 | 1021 ft | 98 kts | 328° |
| 2026-04-20 18:15 | 54.91739 | 8.35844 | 1005 ft | 94 kts | 310° |
| 2026-04-20 18:16 | 54.92131 | 8.34991 | 1025 ft | 87 kts | 316° |
| 2026-04-20 18:16 | 54.92533 | 8.34229 | 1029 ft | 84 kts | 318° |
| 2026-04-20 18:16 | 54.92918 | 8.33461 | 1023 ft | 84 kts | 311° |
| 2026-04-20 18:16 | 54.93096 | 8.32472 | 935 ft | 80 kts | 242° |
| 2026-04-20 18:17 | 54.92746 | 8.31862 | 802 ft | 58 kts | 159° |
| 2026-04-20 18:17 | 54.92422 | 8.32336 | 548 ft | 69 kts | 126° |
| 2026-04-20 18:17 | 54.92060 | 8.32950 | 351 ft | 71 kts | 129° |
| 2026-04-20 18:17 | 54.91640 | 8.33547 | 223 ft | 65 kts | 133° |
| 2026-04-20 18:18 | 54.91204 | 8.34090 | 129 ft | 75 kts | 136° |
| 2026-04-20 18:18 | 54.90660 | 8.34722 | 401 ft | 81 kts | 134° |
| 2026-04-20 18:18 | 54.90418 | 8.35555 | 738 ft | 77 kts | 62° |
| 2026-04-20 18:18 | 54.90905 | 8.36242 | 994 ft | 90 kts | 28° |
| 2026-04-20 18:19 | 54.91531 | 8.35793 | 1042 ft | 104 kts | 313° |
| 2026-04-20 18:19 | 54.91962 | 8.34802 | 1072 ft | 102 kts | 311° |
| 2026-04-20 18:19 | 54.92444 | 8.33860 | 1037 ft | 104 kts | 316° |
| 2026-04-20 18:19 | 54.92956 | 8.32907 | 926 ft | 108 kts | 316° |
| 2026-04-20 18:20 | 54.92837 | 8.31978 | 694 ft | 74 kts | 163° |
| 2026-04-20 18:20 | 54.92491 | 8.32568 | 343 ft | 71 kts | 126° |
| 2026-04-20 18:20 | 54.92132 | 8.33018 | 156 ft | 56 kts | 133° |
| 2026-04-20 18:20 | 54.91827 | 8.33407 | 28 ft | 38 kts | 124° |
| 2026-04-20 18:21 | 54.91601 | 8.33716 | 27 ft | 41 kts | 145° |
| 2026-04-20 18:21 | 54.91169 | 8.34172 | 147 ft | 71 kts | 144° |
| 2026-04-20 18:21 | 54.90663 | 8.34635 | 387 ft | 72 kts | 139° |
| 2026-04-20 18:21 | 54.90280 | 8.35319 | 681 ft | 70 kts | 96° |
| 2026-04-20 18:22 | 54.90631 | 8.36161 | 927 ft | 84 kts | 46° |
| 2026-04-20 18:22 | 54.91310 | 8.36603 | 1007 ft | 110 kts | 358° |
| 2026-04-20 18:22 | 54.91953 | 8.35904 | 1043 ft | 105 kts | 320° |
| 2026-04-20 18:22 | 54.92451 | 8.35012 | 1015 ft | 101 kts | 319° |
| 2026-04-20 18:23 | 54.92934 | 8.34160 | 982 ft | 99 kts | 320° |
| 2026-04-20 18:23 | 54.93403 | 8.33268 | 955 ft | 98 kts | 304° |
| 2026-04-20 18:23 | 54.93339 | 8.32146 | 807 ft | 85 kts | 234° |
| 2026-04-20 18:23 | 54.92910 | 8.32058 | 509 ft | 66 kts | 143° |
| 2026-04-20 18:24 | 54.92572 | 8.32413 | 361 ft | 52 kts | 133° |
| 2026-04-20 18:24 | 54.92291 | 8.32787 | 228 ft | 50 kts | 131° |
| 2026-04-20 18:24 | 54.92004 | 8.33171 | 105 ft | 46 kts | 129° |
| 2026-04-20 18:24 | 54.91727 | 8.33522 | 28 ft | 40 kts | 132° |
| 2026-04-20 18:25 | 54.91450 | 8.33929 | 27 ft | 59 kts | 136° |
| 2026-04-20 18:25 | 54.90986 | 8.34357 | 240 ft | 68 kts | 140° |
| 2026-04-20 18:25 | 54.90515 | 8.34864 | 530 ft | 70 kts | 125° |
| 2026-04-20 18:25 | 54.90566 | 8.35699 | 829 ft | 75 kts | 52° |
| 2026-04-20 18:26 | 54.91103 | 8.36216 | 1010 ft | 98 kts | 8° |
| 2026-04-20 18:26 | 54.91773 | 8.35584 | 1004 ft | 120 kts | 319° |
| 2026-04-20 18:26 | 54.92305 | 8.34600 | 1059 ft | 102 kts | 319° |
| 2026-04-20 18:26 | 54.92798 | 8.33820 | 1032 ft | 92 kts | 328° |
| 2026-04-20 18:27 | 54.93142 | 8.32932 | 977 ft | 83 kts | 259° |
| 2026-04-20 18:27 | 54.92831 | 8.32246 | 803 ft | 63 kts | 169° |
| 2026-04-20 18:27 | 54.92435 | 8.32633 | 449 ft | 71 kts | 138° |
| 2026-04-20 18:27 | 54.92029 | 8.33134 | 134 ft | 66 kts | 136° |
| 2026-04-20 18:28 | 54.91697 | 8.33586 | 27 ft | 41 kts | 125° |
| 2026-04-20 18:28 | 54.91474 | 8.33865 | 27 ft | 34 kts | 142° |
| 2026-04-20 18:28 | 54.91074 | 8.34307 | 155 ft | 68 kts | 141° |
| 2026-04-20 18:28 | 54.90603 | 8.34789 | 420 ft | 71 kts | 138° |
| 2026-04-20 18:29 | 54.90434 | 8.35575 | 709 ft | 72 kts | 71° |
| 2026-04-20 18:29 | 54.90855 | 8.36276 | 1009 ft | 82 kts | 35° |
| 2026-04-20 18:29 | 54.91458 | 8.35950 | 1075 ft | 97 kts | 318° |
| 2026-04-20 18:29 | 54.91909 | 8.35074 | 1080 ft | 97 kts | 314° |
| 2026-04-20 18:30 | 54.92367 | 8.34201 | 1107 ft | 95 kts | 317° |
| 2026-04-20 18:30 | 54.92847 | 8.33416 | 1127 ft | 93 kts | 331° |
| 2026-04-20 18:30 | 54.93365 | 8.32589 | 1046 ft | 100 kts | 295° |
| 2026-04-20 18:30 | 54.93071 | 8.31572 | 814 ft | 82 kts | 188° |
| 2026-04-20 18:31 | 54.92775 | 8.32079 | 540 ft | 65 kts | 108° |
| 2026-04-20 18:31 | 54.92461 | 8.32628 | 326 ft | 66 kts | 138° |
| 2026-04-20 18:31 | 54.92086 | 8.33098 | 126 ft | 62 kts | 134° |
| 2026-04-20 18:31 | 54.91714 | 8.33490 | 28 ft | 45 kts | 141° |
| 2026-04-20 18:32 | 54.91491 | 8.33842 | 27 ft | 43 kts | 139° |
| 2026-04-20 18:32 | 54.91074 | 8.34285 | 184 ft | 67 kts | 139° |
| 2026-04-20 18:32 | 54.90602 | 8.34814 | 436 ft | 74 kts | 135° |
| 2026-04-20 18:32 | 54.90460 | 8.35617 | 752 ft | 73 kts | 64° |
| 2026-04-20 18:33 | 54.90914 | 8.36285 | 1025 ft | 86 kts | 31° |
| 2026-04-20 18:33 | 54.91588 | 8.35922 | 1030 ft | 106 kts | 320° |
| 2026-04-20 18:33 | 54.92078 | 8.35040 | 1045 ft | 96 kts | 317° |
| 2026-04-20 18:33 | 54.92543 | 8.34257 | 1042 ft | 90 kts | 326° |
| 2026-04-20 18:34 | 54.93044 | 8.33581 | 996 ft | 91 kts | 331° |
| 2026-04-20 18:34 | 54.93520 | 8.32796 | 918 ft | 95 kts | 286° |
| 2026-04-20 18:34 | 54.93180 | 8.32094 | 632 ft | 76 kts | 166° |
| 2026-04-20 18:34 | 54.92684 | 8.32380 | 364 ft | 78 kts | 142° |
| 2026-04-20 18:35 | 54.92194 | 8.32911 | 227 ft | 90 kts | 138° |
| 2026-04-20 18:35 | 54.91523 | 8.33740 | 239 ft | 111 kts | 139° |
| 2026-04-20 18:35 | 54.90839 | 8.34565 | 615 ft | 88 kts | 130° |
| 2026-04-20 18:35 | 54.90819 | 8.35485 | 865 ft | 76 kts | 56° |
| 2026-04-20 18:36 | 54.91337 | 8.36059 | 983 ft | 83 kts | 12° |
| 2026-04-20 18:36 | 54.91895 | 8.35559 | 985 ft | 97 kts | 319° |
| 2026-04-20 18:36 | 54.92358 | 8.34681 | 995 ft | 99 kts | 316° |
| 2026-04-20 18:36 | 54.92825 | 8.33794 | 980 ft | 99 kts | 327° |
| 2026-04-20 18:37 | 54.93385 | 8.33021 | 903 ft | 103 kts | 315° |
| 2026-04-20 18:37 | 54.93341 | 8.32017 | 744 ft | 73 kts | 189° |
| 2026-04-20 18:37 | 54.92935 | 8.32215 | 537 ft | 57 kts | 141° |
| 2026-04-20 18:37 | 54.92587 | 8.32506 | 355 ft | 55 kts | 139° |
| 2026-04-20 18:38 | 54.92273 | 8.32840 | 200 ft | 53 kts | 137° |
| 2026-04-20 18:38 | 54.91962 | 8.33238 | 73 ft | 50 kts | 129° |
| 2026-04-20 18:38 | 54.91686 | 8.33610 | 27 ft | 37 kts | 140° |
| 2026-04-20 18:38 | 54.91472 | 8.33860 | 27 ft | 26 kts | 137° |
| 2026-04-20 18:39 | 54.91341 | 8.34014 | 27 ft | 11 kts | 175° |
| 2026-04-20 18:39 | 54.91288 | 8.33940 | 27 ft | 7 kts | 242° |
| 2026-04-20 18:39 | 54.91263 | 8.33865 | 27 ft | 4 kts | 237° |
| 2026-04-20 18:39 | 54.91246 | 8.33821 | 27 ft | 3 kts | 237° |
| 2026-04-20 18:40 | 54.91231 | 8.33777 | 26 ft | 3 kts | 242° |
| 2026-04-20 18:40 | 54.91209 | 8.33707 | 24 ft | 8 kts | 239° |
| 2026-04-20 18:40 | 54.91169 | 8.33589 | 23 ft | 11 kts | 240° |
| 2026-04-20 18:40 | 54.91123 | 8.33454 | 25 ft | 10 kts | 238° |
| 2026-04-20 18:41 | 54.91083 | 8.33326 | 27 ft | 10 kts | 253° |
| 2026-04-20 18:41 | 54.91103 | 8.33198 | 27 ft | 9 kts | 328° |
| 2026-04-20 18:41 | 54.91184 | 8.33180 | 26 ft | 10 kts | 358° |
| 2026-04-20 18:41 | 54.91246 | 8.33178 | 25 ft | 0 kts | 355° |
| 2026-04-20 18:42 | 54.91251 | 8.33177 | 25 ft | 2 kts | 356° |
| 2026-04-20 18:42 | 54.91282 | 8.33178 | 24 ft | 5 kts | 2° |
| 2026-04-20 18:42 | 54.91309 | 8.33157 | 24 ft | 2 kts | 295° |
| 2026-04-20 18:43 | 54.91312 | 8.33102 | 24 ft | 8 kts | 276° |
| 2026-04-20 18:43 | 54.91313 | 8.33093 | 24 ft | 0 kts | 286° |
| 2026-04-20 18:43 | 54.91302 | 8.33078 | 24 ft | 14 kts | 162° |
| 2026-04-20 18:44 | 54.91405 | 8.33331 | 24 ft | 32 kts | 46° |
| 2026-04-20 18:44 | 54.91452 | 8.33438 | 23 ft | 0 kts | 57° |
| 2026-04-20 18:46 | 54.91432 | 8.33525 | 23 ft | 2 kts | 174° |
| 2026-04-20 18:46 | 54.91407 | 8.33501 | 23 ft | 5 kts | 222° |
| 2026-04-20 18:47 | 54.91371 | 8.33378 | 23 ft | 17 kts | 243° |
| 2026-04-20 18:47 | 54.91353 | 8.33297 | 23 ft | 0 kts | 259° |
| 2026-04-20 18:47 | 54.91350 | 8.33276 | 23 ft | 2 kts | 249° |
| 2026-04-20 18:47 | 54.91341 | 8.33251 | 23 ft | 7 kts | 220° |
| 2026-04-20 18:48 | 54.91292 | 8.33203 | 24 ft | 0 kts | 210° |
| 2026-04-20 18:48 | 54.91286 | 8.33196 | 24 ft | 0 kts | 220° |
| 2026-04-20 18:48 | 54.91283 | 8.33191 | 24 ft | 0 kts | 233° |
| 2026-04-20 18:48 | 54.91275 | 8.33090 | 25 ft | 6 kts | 268° |
| 2026-04-20 18:49 | 54.91274 | 8.33072 | 25 ft | 0 kts | 265° |
| 2026-04-20 18:50 | 54.91268 | 8.33045 | 24 ft | 1 kts | 246° |
| 2026-04-20 18:50 | 54.91255 | 8.33006 | 24 ft | 3 kts | 241° |
| 2026-04-20 18:51 | 54.91246 | 8.32962 | 23 ft | 3 kts | 253° |
| 2026-04-20 18:51 | 54.91236 | 8.32888 | 24 ft | 5 kts | 252° |
| 2026-04-20 18:51 | 54.91223 | 8.32824 | 23 ft | 4 kts | 251° |
| 2026-04-20 18:51 | 54.91215 | 8.32780 | 23 ft | 0 kts | 252° |
| 2026-04-20 18:52 | 54.91212 | 8.32763 | 23 ft | 2 kts | 251° |
| 2026-04-20 18:52 | 54.91202 | 8.32711 | 23 ft | 7 kts | 257° |
| 2026-04-20 18:53 | 54.91177 | 8.32593 | 23 ft | 10 kts | 240° |
| 2026-04-20 18:53 | 54.91174 | 8.32582 | 23 ft | 0 kts | 249° |